Time,TemperatureF,DewpointF,PressureIn,WindDirection,WindDirectionDegrees,WindSpeedMPH,WindSpeedGustMPH,Humidity,HourlyPrecipIn,Conditions,Clouds,dailyrainin,SoftwareType,DateUTC
2013-03-25 00:00:00,78.0,-99.9,29.82,SW,230,6.0,6.0,-999,-99.99,,,-99.99,,2013-03-25 04:00:00,
2013-03-25 00:23:00,78.0,-99.9,29.82,SW,230,6.0,6.0,-999,-99.99,,,-99.99,,2013-03-25 04:23:00,
2013-03-25 00:33:00,78.0,-99.9,29.82,SW,230,6.0,6.0,-999,-99.99,,,-99.99,,2013-03-25 04:33:00,
2013-03-25 00:43:00,78.0,-99.9,29.82,SW,230,6.0,6.0,-999,-99.99,,,-99.99,,2013-03-25 04:43:00,
2013-03-25 00:53:00,78.0,-99.9,29.82,SW,230,6.0,6.0,-999,-99.99,,,-99.99,,2013-03-25 04:53:00,
2013-03-25 01:00:00,78.0,-99.9,29.82,SSW,210,5.0,5.0,-999,-99.99,,,-99.99,,2013-03-25 05:00:00,
2013-03-25 01:22:00,78.0,-99.9,29.82,SSW,210,5.0,5.0,-999,-99.99,,,-99.99,,2013-03-25 05:22:00,
2013-03-25 01:33:00,78.0,-99.9,29.82,SSW,210,5.0,5.0,-999,-99.99,,,-99.99,,2013-03-25 05:33:00,
2013-03-25 01:42:00,78.0,-99.9,29.82,SSW,210,5.0,5.0,-999,-99.99,,,-99.99,,2013-03-25 05:42:00,
2013-03-25 01:53:00,78.0,-99.9,29.82,SSW,210,5.0,5.0,-999,-99.99,,,-99.99,,2013-03-25 05:53:00,
2013-03-25 02:00:00,78.0,-99.9,29.81,SSW,200,8.0,9.0,-999,-99.99,,,-99.99,,2013-03-25 06:00:00,
2013-03-25 02:22:00,78.0,-99.9,29.81,SSW,200,8.0,9.0,-999,-99.99,,,-99.99,,2013-03-25 06:22:00,
2013-03-25 02:33:00,78.0,-99.9,29.81,SSW,200,8.0,9.0,-999,-99.99,,,-99.99,,2013-03-25 06:33:00,
2013-03-25 02:43:00,78.0,-99.9,29.81,SSW,200,8.0,9.0,-999,-99.99,,,-99.99,,2013-03-25 06:43:00,
2013-03-25 02:53:00,78.0,-99.9,29.81,SSW,200,8.0,9.0,-999,-99.99,,,-99.99,,2013-03-25 06:53:00,
2013-03-25 03:00:00,77.0,-99.9,29.80,SW,230,8.0,8.0,-999,-99.99,,,-99.99,,2013-03-25 07:00:00,
2013-03-25 03:22:00,77.0,-99.9,29.80,SW,230,8.0,8.0,-999,-99.99,,,-99.99,,2013-03-25 07:22:00,
2013-03-25 03:32:00,77.0,-99.9,29.80,SW,230,8.0,8.0,-999,-99.99,,,-99.99,,2013-03-25 07:32:00,
2013-03-25 03:42:00,77.0,-99.9,29.80,SW,230,8.0,8.0,-999,-99.99,,,-99.99,,2013-03-25 07:42:00,
2013-03-25 03:53:00,77.0,-99.9,29.80,SW,230,8.0,8.0,-999,-99.99,,,-99.99,,2013-03-25 07:53:00,
2013-03-25 04:00:00,78.0,-99.9,29.79,SW,220,14.0,15.0,-999,-99.99,,,-99.99,,2013-03-25 08:00:00,
2013-03-25 04:23:00,78.0,-99.9,29.79,SW,220,14.0,15.0,-999,-99.99,,,-99.99,,2013-03-25 08:23:00,
2013-03-25 04:32:00,78.0,-99.9,29.79,SW,220,14.0,15.0,-999,-99.99,,,-99.99,,2013-03-25 08:32:00,
2013-03-25 04:43:00,78.0,-99.9,29.79,SW,220,14.0,15.0,-999,-99.99,,,-99.99,,2013-03-25 08:43:00,
2013-03-25 04:53:00,78.0,-99.9,29.79,SW,220,14.0,15.0,-999,-99.99,,,-99.99,,2013-03-25 08:53:00,
2013-03-25 05:00:00,78.0,-99.9,29.79,SW,230,18.0,20.0,-999,-99.99,,,-99.99,,2013-03-25 09:00:00,
2013-03-25 05:22:00,78.0,-99.9,29.79,SW,230,18.0,20.0,-999,-99.99,,,-99.99,,2013-03-25 09:22:00,
2013-03-25 05:33:00,78.0,-99.9,29.79,SW,230,18.0,20.0,-999,-99.99,,,-99.99,,2013-03-25 09:33:00,
2013-03-25 05:43:00,78.0,-99.9,29.79,SW,230,18.0,20.0,-999,-99.99,,,-99.99,,2013-03-25 09:43:00,
2013-03-25 05:53:00,78.0,-99.9,29.79,SW,230,18.0,20.0,-999,-99.99,,,-99.99,,2013-03-25 09:53:00,
2013-03-25 06:00:00,77.0,-99.9,29.78,SW,220,17.0,18.0,-999,-99.99,,,-99.99,,2013-03-25 10:00:00,
2013-03-25 06:23:00,77.0,-99.9,29.78,SW,220,17.0,18.0,-999,-99.99,,,-99.99,,2013-03-25 10:23:00,
2013-03-25 06:33:00,77.0,-99.9,29.78,SW,220,17.0,18.0,-999,-99.99,,,-99.99,,2013-03-25 10:33:00,
2013-03-25 06:43:00,77.0,-99.9,29.78,SW,220,17.0,18.0,-999,-99.99,,,-99.99,,2013-03-25 10:43:00,
2013-03-25 06:54:00,77.0,-99.9,29.78,SW,220,17.0,18.0,-999,-99.99,,,-99.99,,2013-03-25 10:54:00,
2013-03-25 07:00:00,77.0,-99.9,29.80,SW,230,21.0,22.0,-999,-99.99,,,-99.99,,2013-03-25 11:00:00,
2013-03-25 07:23:00,77.0,-99.9,29.80,SW,230,21.0,22.0,-999,-99.99,,,-99.99,,2013-03-25 11:23:00,
2013-03-25 07:33:00,77.0,-99.9,29.80,SW,230,21.0,22.0,-999,-99.99,,,-99.99,,2013-03-25 11:33:00,
2013-03-25 07:43:00,77.0,-99.9,29.80,SW,230,21.0,22.0,-999,-99.99,,,-99.99,,2013-03-25 11:43:00,
2013-03-25 07:53:00,77.0,-99.9,29.80,SW,230,21.0,22.0,-999,-99.99,,,-99.99,,2013-03-25 11:53:00,
2013-03-25 08:00:00,77.0,-99.9,29.84,WSW,250,17.0,20.0,-999,-99.99,,,-99.99,,2013-03-25 12:00:00,
2013-03-25 08:23:00,77.0,-99.9,29.84,WSW,250,17.0,20.0,-999,-99.99,,,-99.99,,2013-03-25 12:23:00,
2013-03-25 08:33:00,77.0,-99.9,29.84,WSW,250,17.0,20.0,-999,-99.99,,,-99.99,,2013-03-25 12:33:00,
2013-03-25 08:43:00,77.0,-99.9,29.84,WSW,250,17.0,20.0,-999,-99.99,,,-99.99,,2013-03-25 12:43:00,
2013-03-25 08:54:00,77.0,-99.9,29.84,WSW,250,17.0,20.0,-999,-99.99,,,-99.99,,2013-03-25 12:54:00,
2013-03-25 09:00:00,72.0,-99.9,29.87,WNW,290,9.0,11.0,-999,-99.99,,,-99.99,,2013-03-25 13:00:00,
2013-03-25 09:32:00,72.0,-99.9,29.87,WNW,290,9.0,11.0,-999,-99.99,,,-99.99,,2013-03-25 13:32:00,
2013-03-25 09:43:00,72.0,-99.9,29.87,WNW,290,9.0,11.0,-999,-99.99,,,-99.99,,2013-03-25 13:43:00,
2013-03-25 09:53:00,72.0,-99.9,29.87,WNW,290,9.0,11.0,-999,-99.99,,,-99.99,,2013-03-25 13:53:00,
2013-03-25 10:00:00,75.0,-99.9,29.88,NW,310,8.0,9.0,-999,-99.99,,,-99.99,,2013-03-25 14:00:00,
2013-03-25 10:23:00,75.0,-99.9,29.88,NW,310,8.0,9.0,-999,-99.99,,,-99.99,,2013-03-25 14:23:00,
2013-03-25 10:33:00,75.0,-99.9,29.88,NW,310,8.0,9.0,-999,-99.99,,,-99.99,,2013-03-25 14:33:00,
2013-03-25 10:43:00,75.0,-99.9,29.88,NW,310,8.0,9.0,-999,-99.99,,,-99.99,,2013-03-25 14:43:00,
2013-03-25 10:53:00,75.0,-99.9,29.88,NW,310,8.0,9.0,-999,-99.99,,,-99.99,,2013-03-25 14:53:00,
2013-03-25 11:00:00,76.0,-99.9,29.90,NNW,340,8.0,10.0,-999,-99.99,,,-99.99,,2013-03-25 15:00:00,
2013-03-25 11:23:00,76.0,-99.9,29.90,NNW,340,8.0,10.0,-999,-99.99,,,-99.99,,2013-03-25 15:23:00,
2013-03-25 11:33:00,76.0,-99.9,29.90,NNW,340,8.0,10.0,-999,-99.99,,,-99.99,,2013-03-25 15:33:00,
2013-03-25 11:43:00,76.0,-99.9,29.90,NNW,340,8.0,10.0,-999,-99.99,,,-99.99,,2013-03-25 15:43:00,
2013-03-25 11:54:00,76.0,-99.9,29.90,NNW,340,8.0,10.0,-999,-99.99,,,-99.99,,2013-03-25 15:54:00,
2013-03-25 12:00:00,76.0,-99.9,29.90,North,360,9.0,10.0,-999,-99.99,,,-99.99,,2013-03-25 16:00:00,
2013-03-25 12:24:00,76.0,-99.9,29.90,North,360,9.0,10.0,-999,-99.99,,,-99.99,,2013-03-25 16:24:00,
2013-03-25 12:34:00,76.0,-99.9,29.90,North,360,9.0,10.0,-999,-99.99,,,-99.99,,2013-03-25 16:34:00,
2013-03-25 12:44:00,76.0,-99.9,29.90,North,360,9.0,10.0,-999,-99.99,,,-99.99,,2013-03-25 16:44:00,
2013-03-25 12:53:00,76.0,-99.9,29.90,North,360,9.0,10.0,-999,-99.99,,,-99.99,,2013-03-25 16:53:00,
2013-03-25 13:00:00,76.0,-99.9,29.91,NNW,330,13.0,15.0,-999,-99.99,,,-99.99,,2013-03-25 17:00:00,
2013-03-25 13:24:00,76.0,-99.9,29.91,NNW,330,13.0,15.0,-999,-99.99,,,-99.99,,2013-03-25 17:24:00,
2013-03-25 13:33:00,76.0,-99.9,29.91,NNW,330,13.0,15.0,-999,-99.99,,,-99.99,,2013-03-25 17:33:00,
2013-03-25 13:43:00,76.0,-99.9,29.91,NNW,330,13.0,15.0,-999,-99.99,,,-99.99,,2013-03-25 17:43:00,
2013-03-25 13:53:00,76.0,-99.9,29.91,NNW,330,13.0,15.0,-999,-99.99,,,-99.99,,2013-03-25 17:53:00,
2013-03-25 14:00:00,75.0,-99.9,29.88,NNW,330,17.0,20.0,-999,-99.99,,,-99.99,,2013-03-25 18:00:00,
2013-03-25 14:23:00,75.0,-99.9,29.88,NNW,330,17.0,20.0,-999,-99.99,,,-99.99,,2013-03-25 18:23:00,
2013-03-25 14:33:00,75.0,-99.9,29.88,NNW,330,17.0,20.0,-999,-99.99,,,-99.99,,2013-03-25 18:33:00,
2013-03-25 14:43:00,75.0,-99.9,29.88,NNW,330,17.0,20.0,-999,-99.99,,,-99.99,,2013-03-25 18:43:00,
2013-03-25 14:53:00,75.0,-99.9,29.88,NNW,330,17.0,20.0,-999,-99.99,,,-99.99,,2013-03-25 18:53:00,
2013-03-25 16:00:00,73.0,-99.9,29.86,NNW,340,20.0,22.0,-999,-99.99,,,-99.99,,2013-03-25 20:00:00,
2013-03-25 16:22:00,73.0,-99.9,29.86,NNW,340,20.0,22.0,-999,-99.99,,,-99.99,,2013-03-25 20:22:00,
2013-03-25 16:32:00,73.0,-99.9,29.86,NNW,340,20.0,22.0,-999,-99.99,,,-99.99,,2013-03-25 20:32:00,
2013-03-25 16:43:00,73.0,-99.9,29.86,NNW,340,20.0,22.0,-999,-99.99,,,-99.99,,2013-03-25 20:43:00,
2013-03-25 16:52:00,73.0,-99.9,29.86,NNW,340,20.0,22.0,-999,-99.99,,,-99.99,,2013-03-25 20:52:00,
2013-03-25 17:00:00,73.0,-99.9,29.87,NNW,330,20.0,22.0,-999,-99.99,,,-99.99,,2013-03-25 21:00:00,
2013-03-25 17:22:00,73.0,-99.9,29.87,NNW,330,20.0,22.0,-999,-99.99,,,-99.99,,2013-03-25 21:22:00,
2013-03-25 17:33:00,73.0,-99.9,29.87,NNW,330,20.0,22.0,-999,-99.99,,,-99.99,,2013-03-25 21:33:00,
2013-03-25 17:43:00,73.0,-99.9,29.87,NNW,330,20.0,22.0,-999,-99.99,,,-99.99,,2013-03-25 21:43:00,
2013-03-25 17:52:00,73.0,-99.9,29.87,NNW,330,20.0,22.0,-999,-99.99,,,-99.99,,2013-03-25 21:52:00,
2013-03-25 18:00:00,74.0,-99.9,29.88,NNW,330,17.0,20.0,-999,-99.99,,,-99.99,,2013-03-25 22:00:00,
2013-03-25 18:24:00,74.0,-99.9,29.88,NNW,330,17.0,20.0,-999,-99.99,,,-99.99,,2013-03-25 22:24:00,
2013-03-25 18:33:00,74.0,-99.9,29.88,NNW,330,17.0,20.0,-999,-99.99,,,-99.99,,2013-03-25 22:33:00,
2013-03-25 18:43:00,74.0,-99.9,29.88,NNW,330,17.0,20.0,-999,-99.99,,,-99.99,,2013-03-25 22:43:00,
2013-03-25 18:53:00,74.0,-99.9,29.88,NNW,330,17.0,20.0,-999,-99.99,,,-99.99,,2013-03-25 22:53:00,
2013-03-25 19:00:00,73.0,-99.9,29.89,NNW,330,25.0,29.0,-999,-99.99,,,-99.99,,2013-03-25 23:00:00,
2013-03-25 19:23:00,73.0,-99.9,29.89,NNW,330,25.0,29.0,-999,-99.99,,,-99.99,,2013-03-25 23:23:00,
2013-03-25 19:33:00,73.0,-99.9,29.89,NNW,330,25.0,29.0,-999,-99.99,,,-99.99,,2013-03-25 23:33:00,
2013-03-25 19:43:00,73.0,-99.9,29.89,NNW,330,25.0,29.0,-999,-99.99,,,-99.99,,2013-03-25 23:43:00,
2013-03-25 19:53:00,73.0,-99.9,29.89,NNW,330,25.0,29.0,-999,-99.99,,,-99.99,,2013-03-25 23:53:00,
2013-03-25 20:00:00,72.0,-99.9,29.91,NNW,330,24.0,29.0,-999,-99.99,,,-99.99,,2013-03-26 00:00:00,
2013-03-25 20:23:00,72.0,-99.9,29.91,NNW,330,24.0,29.0,-999,-99.99,,,-99.99,,2013-03-26 00:23:00,
2013-03-25 20:33:00,72.0,-99.9,29.91,NNW,330,24.0,29.0,-999,-99.99,,,-99.99,,2013-03-26 00:33:00,
2013-03-25 20:43:00,72.0,-99.9,29.91,NNW,330,24.0,29.0,-999,-99.99,,,-99.99,,2013-03-26 00:43:00,
2013-03-25 20:53:00,72.0,-99.9,29.91,NNW,330,24.0,29.0,-999,-99.99,,,-99.99,,2013-03-26 00:53:00,
2013-03-25 21:00:00,73.0,-99.9,29.93,North,350,22.0,24.0,-999,-99.99,,,-99.99,,2013-03-26 01:00:00,
2013-03-25 21:23:00,73.0,-99.9,29.93,North,350,22.0,24.0,-999,-99.99,,,-99.99,,2013-03-26 01:23:00,
2013-03-25 21:33:00,73.0,-99.9,29.93,North,350,22.0,24.0,-999,-99.99,,,-99.99,,2013-03-26 01:33:00,
2013-03-25 21:42:00,73.0,-99.9,29.93,North,350,22.0,24.0,-999,-99.99,,,-99.99,,2013-03-26 01:42:00,
2013-03-25 21:53:00,73.0,-99.9,29.93,North,350,22.0,24.0,-999,-99.99,,,-99.99,,2013-03-26 01:53:00,
2013-03-25 22:00:00,74.0,-99.9,29.97,North,360,18.0,21.0,-999,-99.99,,,-99.99,,2013-03-26 02:00:00,
2013-03-25 22:23:00,74.0,-99.9,29.97,North,360,18.0,21.0,-999,-99.99,,,-99.99,,2013-03-26 02:23:00,
2013-03-25 22:32:00,74.0,-99.9,29.97,North,360,18.0,21.0,-999,-99.99,,,-99.99,,2013-03-26 02:32:00,
2013-03-25 22:43:00,74.0,-99.9,29.97,North,360,18.0,21.0,-999,-99.99,,,-99.99,,2013-03-26 02:43:00,
2013-03-25 22:53:00,74.0,-99.9,29.97,North,360,18.0,21.0,-999,-99.99,,,-99.99,,2013-03-26 02:53:00,
2013-03-25 23:00:00,73.0,-99.9,30.01,North,10,22.0,24.0,-999,-99.99,,,-99.99,,2013-03-26 03:00:00,
2013-03-25 23:22:00,73.0,-99.9,30.01,North,10,22.0,24.0,-999,-99.99,,,-99.99,,2013-03-26 03:22:00,
2013-03-25 23:34:00,73.0,-99.9,30.01,North,10,22.0,24.0,-999,-99.99,,,-99.99,,2013-03-26 03:34:00,
2013-03-25 23:43:00,73.0,-99.9,30.01,North,10,22.0,24.0,-999,-99.99,,,-99.99,,2013-03-26 03:43:00,
2013-03-25 23:53:00,73.0,-99.9,30.01,North,10,22.0,24.0,-999,-99.99,,,-99.99,,2013-03-26 03:53:00,